ANZ926 NZAA-NZCH
Flight info
| Callsign | ANZ926 |
|---|---|
| Flight time | N/A |
| Altitude | 36000 |
| Route | IGBAT H384 NP H252 NS Y288 IPRAK |
| Aircraft | A320/M-SDE3FGHIRWY/LB1 |
Departure
| Time | N/A |
|---|---|
| Airport | Auckland International Airport (NZAA) |
Arrival
| Time | 2026-05-06 11:17 |
|---|---|
| Airport | Christchurch International Airport (NZCH) |
| Time | Latitude | Longitude | Altitude | Speed | Heading |
|---|---|---|---|---|---|
| 2026-05-06 10:20 | -37.82152 | 174.56083 | 28110 ft | 422 kts | 195° |
| 2026-05-06 10:20 | -37.84969 | 174.55201 | 28464 ft | 424 kts | 195° |
| 2026-05-06 10:21 | -37.87883 | 174.54288 | 28803 ft | 427 kts | 195° |
| 2026-05-06 10:21 | -37.90729 | 174.53397 | 29140 ft | 429 kts | 195° |
| 2026-05-06 10:21 | -37.93636 | 174.52486 | 29487 ft | 431 kts | 195° |
| 2026-05-06 10:21 | -37.96549 | 174.51572 | 29827 ft | 433 kts | 195° |
| 2026-05-06 10:22 | -37.99476 | 174.50653 | 30169 ft | 434 kts | 195° |
| 2026-05-06 10:22 | -38.02418 | 174.49730 | 30503 ft | 436 kts | 195° |
| 2026-05-06 10:22 | -38.05362 | 174.48807 | 30788 ft | 437 kts | 195° |
| 2026-05-06 10:22 | -38.08324 | 174.47876 | 31074 ft | 439 kts | 195° |
| 2026-05-06 10:23 | -38.11294 | 174.46942 | 31364 ft | 440 kts | 196° |
| 2026-05-06 10:23 | -38.14268 | 174.46003 | 31642 ft | 441 kts | 196° |
| 2026-05-06 10:23 | -38.17242 | 174.45066 | 32048 ft | 439 kts | 196° |
| 2026-05-06 10:23 | -38.20200 | 174.44134 | 32473 ft | 437 kts | 196° |
| 2026-05-06 10:24 | -38.23145 | 174.43205 | 32899 ft | 434 kts | 197° |
| 2026-05-06 10:24 | -38.26065 | 174.42280 | 33330 ft | 432 kts | 197° |
| 2026-05-06 10:24 | -38.28976 | 174.41359 | 33758 ft | 430 kts | 197° |
| 2026-05-06 10:24 | -38.31870 | 174.40442 | 34190 ft | 428 kts | 197° |
| 2026-05-06 10:25 | -38.34744 | 174.39530 | 34577 ft | 426 kts | 197° |
| 2026-05-06 10:25 | -38.37619 | 174.38615 | 34910 ft | 425 kts | 197° |
| 2026-05-06 10:25 | -38.40480 | 174.37704 | 35205 ft | 425 kts | 197° |
| 2026-05-06 10:25 | -38.43346 | 174.36793 | 35484 ft | 425 kts | 197° |
| 2026-05-06 10:26 | -38.46220 | 174.35882 | 35750 ft | 425 kts | 197° |
| 2026-05-06 10:26 | -38.49084 | 174.34972 | 36015 ft | 425 kts | 197° |
| 2026-05-06 10:26 | -38.51956 | 174.34055 | 36272 ft | 425 kts | 197° |
| 2026-05-06 10:26 | -38.54830 | 174.33135 | 36355 ft | 426 kts | 197° |
| 2026-05-06 10:27 | -38.60574 | 174.31304 | 36368 ft | 425 kts | 197° |
| 2026-05-06 10:27 | -38.66313 | 174.29466 | 36369 ft | 425 kts | 197° |
| 2026-05-06 10:28 | -38.71076 | 174.27939 | 36368 ft | 426 kts | 197° |
| 2026-05-06 10:28 | -38.76858 | 174.26083 | 36371 ft | 430 kts | 197° |
| 2026-05-06 10:29 | -38.82665 | 174.24214 | 36368 ft | 430 kts | 197° |
| 2026-05-06 10:29 | -38.88475 | 174.22344 | 36369 ft | 430 kts | 197° |
| 2026-05-06 10:30 | -38.94288 | 174.20483 | 36373 ft | 431 kts | 197° |
| 2026-05-06 10:30 | -39.00100 | 174.18605 | 36388 ft | 431 kts | 197° |
| 2026-05-06 10:31 | -39.05858 | 174.16486 | 36379 ft | 430 kts | 200° |
| 2026-05-06 10:31 | -39.11532 | 174.14087 | 36384 ft | 429 kts | 201° |
| 2026-05-06 10:32 | -39.17206 | 174.11671 | 36389 ft | 429 kts | 201° |
| 2026-05-06 10:32 | -39.22899 | 174.09318 | 36387 ft | 430 kts | 200° |
| 2026-05-06 10:33 | -39.28604 | 174.06997 | 36384 ft | 430 kts | 200° |
| 2026-05-06 10:33 | -39.34311 | 174.04667 | 36373 ft | 430 kts | 200° |
| 2026-05-06 10:34 | -39.40015 | 174.02322 | 36374 ft | 430 kts | 201° |
| 2026-05-06 10:34 | -39.45723 | 173.99967 | 36376 ft | 430 kts | 201° |
| 2026-05-06 10:35 | -39.51429 | 173.97606 | 36366 ft | 431 kts | 201° |
| 2026-05-06 10:35 | -39.57139 | 173.95244 | 36367 ft | 431 kts | 201° |
| 2026-05-06 10:36 | -39.62856 | 173.92877 | 36360 ft | 431 kts | 201° |
| 2026-05-06 10:36 | -39.68568 | 173.90502 | 36363 ft | 431 kts | 201° |
| 2026-05-06 10:37 | -39.74281 | 173.88126 | 36356 ft | 431 kts | 201° |
| 2026-05-06 10:37 | -39.79965 | 173.85765 | 36354 ft | 432 kts | 201° |
| 2026-05-06 10:38 | -39.85684 | 173.83376 | 36354 ft | 432 kts | 201° |
| 2026-05-06 10:38 | -39.91399 | 173.80988 | 36360 ft | 432 kts | 201° |
| 2026-05-06 10:39 | -39.97117 | 173.78602 | 36358 ft | 431 kts | 201° |
| 2026-05-06 10:39 | -40.02830 | 173.76204 | 36356 ft | 431 kts | 201° |
| 2026-05-06 10:40 | -40.08545 | 173.73801 | 36364 ft | 431 kts | 201° |
| 2026-05-06 10:40 | -40.14262 | 173.71403 | 36358 ft | 431 kts | 201° |
| 2026-05-06 10:41 | -40.19978 | 173.69001 | 36355 ft | 431 kts | 201° |
| 2026-05-06 10:41 | -40.25692 | 173.66591 | 36353 ft | 432 kts | 201° |
| 2026-05-06 10:42 | -40.31405 | 173.64170 | 36357 ft | 431 kts | 201° |
| 2026-05-06 10:42 | -40.37118 | 173.61748 | 36352 ft | 432 kts | 201° |
| 2026-05-06 10:43 | -40.42836 | 173.59324 | 36346 ft | 432 kts | 201° |
| 2026-05-06 10:44 | -40.51422 | 173.55674 | 36347 ft | 432 kts | 201° |
| 2026-05-06 10:44 | -40.57141 | 173.53227 | 36353 ft | 432 kts | 202° |
| 2026-05-06 10:45 | -40.62856 | 173.50783 | 36347 ft | 432 kts | 202° |
| 2026-05-06 10:45 | -40.68578 | 173.48343 | 36345 ft | 432 kts | 202° |
| 2026-05-06 10:46 | -40.74301 | 173.45899 | 36363 ft | 432 kts | 202° |
| 2026-05-06 10:46 | -40.80020 | 173.43442 | 36361 ft | 432 kts | 202° |
| 2026-05-06 10:47 | -40.85732 | 173.40982 | 36358 ft | 432 kts | 202° |
| 2026-05-06 10:47 | -40.91448 | 173.38527 | 36352 ft | 432 kts | 202° |
| 2026-05-06 10:48 | -40.97160 | 173.36064 | 36357 ft | 432 kts | 202° |
| 2026-05-06 10:48 | -41.02864 | 173.33589 | 36352 ft | 433 kts | 202° |
| 2026-05-06 10:49 | -41.08584 | 173.31106 | 36342 ft | 433 kts | 202° |
| 2026-05-06 10:49 | -41.14309 | 173.28620 | 36335 ft | 433 kts | 202° |
| 2026-05-06 10:50 | -41.20034 | 173.26140 | 36343 ft | 433 kts | 202° |
| 2026-05-06 10:50 | -41.25767 | 173.23644 | 36339 ft | 434 kts | 202° |
| 2026-05-06 10:51 | -41.31501 | 173.21141 | 36338 ft | 434 kts | 201° |
| 2026-05-06 10:51 | -41.37304 | 173.18852 | 36352 ft | 435 kts | 200° |
| 2026-05-06 10:52 | -41.43150 | 173.16696 | 36344 ft | 436 kts | 199° |
| 2026-05-06 10:52 | -41.48951 | 173.14521 | 36349 ft | 436 kts | 200° |
| 2026-05-06 10:53 | -41.54782 | 173.12275 | 36351 ft | 436 kts | 201° |
| 2026-05-06 10:53 | -41.60604 | 173.10015 | 36354 ft | 436 kts | 201° |
| 2026-05-06 10:54 | -41.66438 | 173.07757 | 36343 ft | 437 kts | 201° |
| 2026-05-06 10:54 | -41.72276 | 173.05504 | 36341 ft | 437 kts | 201° |
| 2026-05-06 10:55 | -41.78123 | 173.03243 | 36348 ft | 437 kts | 201° |
| 2026-05-06 10:55 | -41.83965 | 173.00972 | 36329 ft | 438 kts | 201° |
| 2026-05-06 10:56 | -41.89823 | 172.98692 | 36015 ft | 438 kts | 201° |
| 2026-05-06 10:56 | -41.92752 | 172.97551 | 35760 ft | 439 kts | 201° |
| 2026-05-06 10:56 | -41.95685 | 172.96405 | 35516 ft | 439 kts | 201° |
| 2026-05-06 10:56 | -41.98625 | 172.95252 | 35272 ft | 440 kts | 201° |
| 2026-05-06 10:57 | -42.01570 | 172.94098 | 35004 ft | 441 kts | 201° |
| 2026-05-06 10:57 | -42.04531 | 172.92938 | 34243 ft | 445 kts | 202° |
| 2026-05-06 10:57 | -42.07509 | 172.91771 | 33544 ft | 445 kts | 201° |
| 2026-05-06 10:57 | -42.10465 | 172.90617 | 33085 ft | 439 kts | 201° |
| 2026-05-06 10:58 | -42.13386 | 172.89475 | 32575 ft | 436 kts | 201° |
| 2026-05-06 10:58 | -42.16291 | 172.88338 | 32049 ft | 433 kts | 201° |
| 2026-05-06 10:58 | -42.19175 | 172.87209 | 31545 ft | 430 kts | 201° |
| 2026-05-06 10:58 | -42.22038 | 172.86085 | 31016 ft | 428 kts | 201° |
| 2026-05-06 10:59 | -42.24890 | 172.84960 | 30501 ft | 426 kts | 202° |
| 2026-05-06 10:59 | -42.27723 | 172.83835 | 29947 ft | 423 kts | 201° |
| 2026-05-06 10:59 | -42.30538 | 172.82719 | 29445 ft | 420 kts | 201° |
| 2026-05-06 10:59 | -42.33327 | 172.81615 | 28925 ft | 416 kts | 201° |
| 2026-05-06 11:00 | -42.36094 | 172.80522 | 28438 ft | 413 kts | 201° |
| 2026-05-06 11:00 | -42.38842 | 172.79437 | 27955 ft | 411 kts | 201° |
| 2026-05-06 11:00 | -42.41579 | 172.78354 | 27462 ft | 408 kts | 201° |
| 2026-05-06 11:00 | -42.44300 | 172.77276 | 27006 ft | 406 kts | 201° |
| 2026-05-06 11:01 | -42.47009 | 172.76201 | 26534 ft | 404 kts | 201° |
| 2026-05-06 11:01 | -42.49700 | 172.75128 | 26094 ft | 402 kts | 201° |
| 2026-05-06 11:01 | -42.52377 | 172.74062 | 25657 ft | 401 kts | 201° |
| 2026-05-06 11:01 | -42.55054 | 172.72996 | 25209 ft | 400 kts | 201° |
| 2026-05-06 11:02 | -42.57719 | 172.71932 | 24788 ft | 399 kts | 201° |
| 2026-05-06 11:02 | -42.60378 | 172.70872 | 24363 ft | 399 kts | 201° |
| 2026-05-06 11:02 | -42.63037 | 172.69810 | 23908 ft | 398 kts | 201° |
| 2026-05-06 11:02 | -42.65694 | 172.68749 | 23423 ft | 398 kts | 201° |
| 2026-05-06 11:03 | -42.68339 | 172.67693 | 22967 ft | 395 kts | 200° |
| 2026-05-06 11:03 | -42.70940 | 172.66659 | 22514 ft | 393 kts | 200° |
| 2026-05-06 11:03 | -42.73590 | 172.65606 | 22040 ft | 391 kts | 200° |
| 2026-05-06 11:03 | -42.76199 | 172.64565 | 21568 ft | 389 kts | 200° |
| 2026-05-06 11:04 | -42.78790 | 172.63523 | 21089 ft | 387 kts | 200° |
| 2026-05-06 11:04 | -42.81364 | 172.62483 | 20595 ft | 386 kts | 200° |
| 2026-05-06 11:04 | -42.83904 | 172.61456 | 20090 ft | 385 kts | 200° |
| 2026-05-06 11:04 | -42.86473 | 172.60416 | 19571 ft | 385 kts | 200° |
| 2026-05-06 11:05 | -42.89038 | 172.59373 | 19029 ft | 385 kts | 200° |
| 2026-05-06 11:05 | -42.91600 | 172.58329 | 18521 ft | 384 kts | 199° |
| 2026-05-06 11:05 | -42.94159 | 172.57287 | 17943 ft | 383 kts | 199° |
| 2026-05-06 11:05 | -42.96708 | 172.56250 | 17422 ft | 381 kts | 199° |
| 2026-05-06 11:06 | -42.99239 | 172.55221 | 16920 ft | 379 kts | 199° |
| 2026-05-06 11:06 | -43.01758 | 172.54193 | 16391 ft | 377 kts | 199° |
| 2026-05-06 11:06 | -43.04267 | 172.53166 | 15871 ft | 376 kts | 199° |
| 2026-05-06 11:06 | -43.06767 | 172.52143 | 15363 ft | 374 kts | 199° |
| 2026-05-06 11:07 | -43.09265 | 172.51120 | 14847 ft | 374 kts | 199° |
| 2026-05-06 11:07 | -43.11754 | 172.50102 | 14326 ft | 373 kts | 198° |
| 2026-05-06 11:07 | -43.14232 | 172.49086 | 13803 ft | 372 kts | 198° |
| 2026-05-06 11:07 | -43.16705 | 172.48074 | 13335 ft | 368 kts | 198° |
| 2026-05-06 11:08 | -43.19159 | 172.47071 | 12705 ft | 369 kts | 198° |
| 2026-05-06 11:08 | -43.21586 | 172.46076 | 12140 ft | 358 kts | 198° |
| 2026-05-06 11:08 | -43.23919 | 172.45118 | 11651 ft | 343 kts | 198° |
| 2026-05-06 11:08 | -43.26161 | 172.44198 | 11207 ft | 334 kts | 198° |
| 2026-05-06 11:09 | -43.28386 | 172.43282 | 10755 ft | 334 kts | 198° |
| 2026-05-06 11:09 | -43.30614 | 172.42361 | 10308 ft | 334 kts | 198° |
| 2026-05-06 11:09 | -43.32806 | 172.41454 | 10173 ft | 323 kts | 198° |
| 2026-05-06 11:09 | -43.34923 | 172.40579 | 10040 ft | 313 kts | 198° |
| 2026-05-06 11:10 | -43.36987 | 172.39729 | 9678 ft | 310 kts | 198° |
| 2026-05-06 11:10 | -43.39070 | 172.38869 | 9152 ft | 314 kts | 198° |
| 2026-05-06 11:10 | -43.41226 | 172.38300 | 8608 ft | 320 kts | 189° |
| 2026-05-06 11:10 | -43.43463 | 172.37933 | 7984 ft | 326 kts | 189° |
| 2026-05-06 11:11 | -43.45734 | 172.37569 | 7369 ft | 332 kts | 190° |
| 2026-05-06 11:11 | -43.48051 | 172.37202 | 6730 ft | 338 kts | 191° |
| 2026-05-06 11:11 | -43.50400 | 172.36830 | 6071 ft | 342 kts | 191° |
| 2026-05-06 11:11 | -43.52748 | 172.36457 | 5410 ft | 335 kts | 190° |
| 2026-05-06 11:12 | -43.55021 | 172.36100 | 4806 ft | 324 kts | 190° |
| 2026-05-06 11:12 | -43.57229 | 172.35766 | 4187 ft | 314 kts | 186° |
| 2026-05-06 11:12 | -43.59348 | 172.36193 | 3605 ft | 308 kts | 155° |
| 2026-05-06 11:12 | -43.60983 | 172.37989 | 3020 ft | 298 kts | 122° |
| 2026-05-06 11:13 | -43.61603 | 172.40549 | 2731 ft | 271 kts | 85° |
| 2026-05-06 11:13 | -43.61101 | 172.42866 | 2556 ft | 241 kts | 48° |
| 2026-05-06 11:13 | -43.59858 | 172.44166 | 2376 ft | 216 kts | 22° |
| 2026-05-06 11:13 | -43.58971 | 172.44734 | 2206 ft | 208 kts | 22° |
| 2026-05-06 11:14 | -43.57255 | 172.45759 | 1826 ft | 191 kts | 13° |
| 2026-05-06 11:14 | -43.55997 | 172.45928 | 1569 ft | 172 kts | 356° |
| 2026-05-06 11:14 | -43.54882 | 172.45863 | 1564 ft | 152 kts | 13° |
| 2026-05-06 11:14 | -43.54320 | 172.46342 | 1581 ft | 146 kts | 51° |
| 2026-05-06 11:15 | -43.53835 | 172.47533 | 1668 ft | 139 kts | 47° |
| 2026-05-06 11:15 | -43.53101 | 172.48347 | 1473 ft | 134 kts | 35° |
| 2026-05-06 11:15 | -43.52416 | 172.49270 | 957 ft | 141 kts | 41° |
| 2026-05-06 11:15 | -43.51669 | 172.50089 | 662 ft | 135 kts | 36° |
| 2026-05-06 11:16 | -43.50929 | 172.50889 | 435 ft | 136 kts | 42° |
| 2026-05-06 11:16 | -43.50185 | 172.51724 | 316 ft | 139 kts | 40° |
| 2026-05-06 11:16 | -43.49439 | 172.52578 | 141 ft | 138 kts | 42° |
| 2026-05-06 11:16 | -43.48827 | 172.53288 | 113 ft | 78 kts | 39° |
| 2026-05-06 11:17 | -43.48622 | 172.53521 | 113 ft | 18 kts | 39° |
| 2026-05-06 11:17 | -43.48523 | 172.53654 | 111 ft | 22 kts | 62° |
| 2026-05-06 11:17 | -43.48468 | 172.53864 | 108 ft | 20 kts | 71° |
| 2026-05-06 11:17 | -43.48458 | 172.53909 | 107 ft | 0 kts | 75° |
| 2026-05-06 11:18 | -43.48457 | 172.53928 | 106 ft | 7 kts | 89° |
| 2026-05-06 11:18 | -43.48495 | 172.53991 | 106 ft | 10 kts | 163° |